Time;durP1;ratioP1;P1;durP2;ratioP2;P2;SDS_P1;SDS_P2;PMS_P1;PMS_P2;Temp;Humidity;BMP_temperature;BMP_pressure;BME280_temperature;BME280_humidity;BME280_pressure;Samples;Min_cycle;Max_cycle;Signal;HPM_P1;HPM_P2
2023/09/27 00:00:33;;;;;;;0.10;0.10;;;;;;;;;;4963721;28;20407;-87
2023/09/27 00:02:59;;;;;;;0.20;0.20;;;;;;;;;;4963887;28;20039;-88
2023/09/27 00:05:31;;;;;;;0.10;0.10;;;;;;;;;;4964176;28;20045;-88
2023/09/27 00:08:06;;;;;;;0.20;0.20;;;;;;;;;;4963748;28;20057;-87
2023/09/27 00:10:32;;;;;;;0.30;0.30;;;;;;;;;;4964107;28;20125;-88
2023/09/27 00:12:58;;;;;;;0.22;0.22;;;;;;;;;;4963836;28;20078;-88
2023/09/27 00:15:27;;;;;;;0.20;0.20;;;;;;;;;;4963727;28;20070;-87
2023/09/27 00:17:54;;;;;;;0.20;0.20;;;;;;;;;;4963003;28;20047;-86
2023/09/27 00:20:21;;;;;;;0.20;0.20;;;;;;;;;;4962830;28;20499;-88
2023/09/27 00:22:47;;;;;;;0.30;0.30;;;;;;;;;;4947206;29;20047;-86
2023/09/27 00:25:14;;;;;;;0.20;0.20;;;;;;;;;;4959940;29;20046;-88
2023/09/27 00:27:41;;;;;;;0.30;0.30;;;;;;;;;;4943368;29;20079;-87
2023/09/27 00:30:08;;;;;;;0.13;0.13;;;;;;;;;;4943823;29;20512;-87
2023/09/27 00:32:34;;;;;;;0.20;0.20;;;;;;;;;;4943404;29;20086;-86
2023/09/27 00:35:01;;;;;;;0.10;0.10;;;;;;;;;;4943893;29;20054;-85
2023/09/27 00:37:27;;;;;;;0.20;0.20;;;;;;;;;;4943373;29;20051;-86
2023/09/27 00:39:54;;;;;;;0.20;0.20;;;;;;;;;;4943574;29;20058;-84
2023/09/27 00:42:20;;;;;;;0.10;0.10;;;;;;;;;;4943880;29;20488;-87
2023/09/27 00:44:46;;;;;;;0.20;0.20;;;;;;;;;;4942997;29;20094;-87
2023/09/27 00:47:12;;;;;;;0.25;0.25;;;;;;;;;;4958543;29;20043;-88
2023/09/27 00:49:39;;;;;;;0.30;0.30;;;;;;;;;;4943530;29;20468;-87
2023/09/27 00:52:06;;;;;;;0.20;0.20;;;;;;;;;;4944821;29;20111;-85
2023/09/27 00:54:34;;;;;;;0.32;0.32;;;;;;;;;;4943669;29;20051;-85
2023/09/27 00:57:01;;;;;;;0.17;0.17;;;;;;;;;;4943620;29;20036;-85
2023/09/27 00:59:29;;;;;;;0.30;0.30;;;;;;;;;;4944132;28;20047;-84
2023/09/27 01:01:56;;;;;;;0.22;0.22;;;;;;;;;;4961817;28;20045;-88
2023/09/27 01:04:23;;;;;;;0.20;0.20;;;;;;;;;;4977181;28;20042;-85
2023/09/27 01:06:49;;;;;;;0.20;0.20;;;;;;;;;;4962777;28;20039;-85
2023/09/27 01:09:17;;;;;;;0.10;0.10;;;;;;;;;;4962078;28;20487;-85
2023/09/27 01:11:46;;;;;;;0.20;0.20;;;;;;;;;;4961600;28;20043;-85
2023/09/27 01:14:12;;;;;;;0.20;0.20;;;;;;;;;;4961931;28;20046;-86
2023/09/27 01:16:38;;;;;;;0.20;0.20;;;;;;;;;;4978359;28;20093;-86
2023/09/27 01:19:04;;;;;;;0.10;0.10;;;;;;;;;;4961220;28;20042;-85
2023/09/27 01:21:31;;;;;;;0.10;0.10;;;;;;;;;;4978287;28;20093;-85
2023/09/27 01:23:58;;;;;;;0.30;0.30;;;;;;;;;;4977265;28;20042;-87
2023/09/27 01:26:24;;;;;;;0.30;0.30;;;;;;;;;;4962087;28;20043;-85
2023/09/27 01:28:50;;;;;;;0.20;0.20;;;;;;;;;;4961522;28;20503;-87
2023/09/27 01:31:17;;;;;;;0.25;0.25;;;;;;;;;;4961649;28;20404;-87
2023/09/27 01:33:43;;;;;;;0.20;0.20;;;;;;;;;;4962020;28;20058;-86
2023/09/27 01:36:11;;;;;;;0.17;0.17;;;;;;;;;;4978898;28;20103;-87
2023/09/27 01:38:38;;;;;;;0.20;0.20;;;;;;;;;;4961372;28;20388;-87
2023/09/27 01:41:04;;;;;;;0.20;0.20;;;;;;;;;;4976736;28;20043;-83
2023/09/27 01:43:30;;;;;;;0.20;0.20;;;;;;;;;;4960848;28;20042;-86
2023/09/27 01:45:57;;;;;;;0.30;0.30;;;;;;;;;;4960975;28;20047;-87
2023/09/27 01:48:23;;;;;;;0.20;0.20;;;;;;;;;;4961084;28;20046;-86
2023/09/27 01:50:49;;;;;;;0.20;0.20;;;;;;;;;;4962008;28;20050;-86
2023/09/27 01:53:17;;;;;;;0.30;0.30;;;;;;;;;;4977364;28;20134;-87
2023/09/27 01:55:43;;;;;;;0.20;0.20;;;;;;;;;;4961638;28;20403;-87
2023/09/27 01:58:09;;;;;;;0.20;0.20;;;;;;;;;;4976893;28;20085;-88
2023/09/27 02:00:36;;;;;;;0.30;0.30;;;;;;;;;;4961254;28;20043;-86
2023/09/27 02:03:02;;;;;;;0.20;0.20;;;;;;;;;;4960443;28;20043;-86
2023/09/27 02:05:30;;;;;;;0.30;0.30;;;;;;;;;;4962231;28;20125;-90
2023/09/27 02:07:56;;;;;;;0.32;0.32;;;;;;;;;;4960931;28;20042;-88
2023/09/27 02:10:22;;;;;;;0.15;0.15;;;;;;;;;;4960993;28;20045;-87
2023/09/27 02:12:48;;;;;;;0.20;0.20;;;;;;;;;;4961637;28;20047;-87
2023/09/27 02:15:28;;;;;;;0.40;0.40;;;;;;;;;;4961316;28;20035;-87
2023/09/27 02:17:54;;;;;;;0.20;0.20;;;;;;;;;;4961010;28;20051;-88
2023/09/27 02:20:20;;;;;;;0.20;0.20;;;;;;;;;;4961757;28;20479;-86
2023/09/27 02:22:50;;;;;;;0.30;0.30;;;;;;;;;;4961258;28;20034;-85
2023/09/27 02:25:16;;;;;;;0.15;0.15;;;;;;;;;;4960781;28;20029;-86
2023/09/27 02:27:43;;;;;;;0.20;0.20;;;;;;;;;;4960291;28;20054;-87
2023/09/27 02:30:11;;;;;;;0.30;0.30;;;;;;;;;;4960948;28;20074;-88
2023/09/27 02:32:38;;;;;;;0.10;0.10;;;;;;;;;;4960831;28;20049;-87
2023/09/27 02:35:06;;;;;;;0.10;0.10;;;;;;;;;;4961191;28;20039;-88
2023/09/27 02:37:32;;;;;;;0.20;0.20;;;;;;;;;;4977058;28;20039;-87
2023/09/27 02:39:58;;;;;;;0.20;0.20;;;;;;;;;;4960704;28;20078;-86
2023/09/27 02:42:25;;;;;;;0.45;0.45;;;;;;;;;;4960081;28;20065;-86
2023/09/27 02:44:51;;;;;;;0.32;0.32;;;;;;;;;;4960820;28;20057;-87
2023/09/27 02:47:17;;;;;;;0.30;0.30;;;;;;;;;;4959968;28;20054;-85
2023/09/27 02:49:43;;;;;;;0.20;0.20;;;;;;;;;;4960031;28;20038;-87
2023/09/27 02:52:10;;;;;;;0.17;0.17;;;;;;;;;;4945786;28;20105;-86
2023/09/27 02:54:36;;;;;;;0.20;0.20;;;;;;;;;;4960638;28;20052;-87
2023/09/27 02:57:02;;;;;;;0.28;0.28;;;;;;;;;;4976250;28;20047;-87
2023/09/27 02:59:29;;;;;;;0.20;0.20;;;;;;;;;;4959994;28;20051;-87
2023/09/27 03:01:55;;;;;;;0.20;0.20;;;;;;;;;;4976787;28;20082;-86
2023/09/27 03:04:21;;;;;;;0.20;0.20;;;;;;;;;;4960056;28;20039;-84
2023/09/27 03:06:48;;;;;;;0.10;0.10;;;;;;;;;;4957486;29;20577;-87
2023/09/27 03:09:15;;;;;;;0.10;0.10;;;;;;;;;;4940665;29;20101;-87
2023/09/27 03:11:43;;;;;;;0.30;0.30;;;;;;;;;;4941230;29;20143;-87
2023/09/27 03:14:10;;;;;;;0.20;0.20;;;;;;;;;;4956339;29;20047;-86
2023/09/27 03:16:37;;;;;;;0.30;0.30;;;;;;;;;;4941275;29;20047;-86
2023/09/27 03:19:03;;;;;;;0.30;0.30;;;;;;;;;;4940500;29;20047;-87
2023/09/27 03:21:29;;;;;;;0.20;0.20;;;;;;;;;;4941953;29;20182;-87
2023/09/27 03:23:57;;;;;;;0.30;0.30;;;;;;;;;;4957340;29;20058;-85
2023/09/27 03:26:23;;;;;;;0.20;0.20;;;;;;;;;;4941015;29;20043;-87
2023/09/27 03:28:50;;;;;;;0.40;0.40;;;;;;;;;;4940180;29;20047;-86
2023/09/27 03:31:16;;;;;;;0.20;0.20;;;;;;;;;;4940825;29;20066;-87
2023/09/27 03:33:42;;;;;;;0.20;0.20;;;;;;;;;;4941531;29;20047;-87
2023/09/27 03:36:08;;;;;;;0.20;0.20;;;;;;;;;;4959111;29;20139;-86
2023/09/27 03:38:37;;;;;;;0.30;0.30;;;;;;;;;;4940347;29;20051;-86
2023/09/27 03:41:07;;;;;;;0.20;0.20;;;;;;;;;;4940813;29;20039;-87
2023/09/27 03:43:34;;;;;;;0.30;0.30;;;;;;;;;;4941107;29;20090;-88
2023/09/27 03:46:03;;;;;;;0.20;0.20;;;;;;;;;;4941108;29;20185;-85
2023/09/27 03:48:30;;;;;;;0.30;0.30;;;;;;;;;;4940247;29;20051;-87
2023/09/27 03:50:57;;;;;;;0.32;0.32;;;;;;;;;;4957282;29;20129;-86
2023/09/27 03:53:23;;;;;;;0.30;0.30;;;;;;;;;;4940998;29;20047;-85
2023/09/27 03:55:50;;;;;;;0.20;0.20;;;;;;;;;;4956877;28;20047;-88
2023/09/27 03:58:16;;;;;;;0.15;0.15;;;;;;;;;;4939758;29;20555;-86
2023/09/27 04:00:42;;;;;;;0.20;0.20;;;;;;;;;;4940294;29;20046;-86
2023/09/27 04:03:09;;;;;;;0.20;0.20;;;;;;;;;;4953190;28;20050;-88
2023/09/27 04:05:36;;;;;;;0.30;0.30;;;;;;;;;;4964154;28;20045;-85
2023/09/27 04:08:02;;;;;;;0.40;0.40;;;;;;;;;;4962635;28;20066;-87
2023/09/27 04:10:29;;;;;;;0.20;0.20;;;;;;;;;;4962915;28;20046;-88
2023/09/27 04:12:55;;;;;;;0.20;0.20;;;;;;;;;;4962958;28;20046;-86
2023/09/27 04:15:21;;;;;;;0.28;0.28;;;;;;;;;;4962849;28;20035;-86
2023/09/27 04:17:47;;;;;;;0.20;0.20;;;;;;;;;;4962482;28;20185;-86
2023/09/27 04:20:17;;;;;;;0.20;0.20;;;;;;;;;;4962893;28;20118;-87
2023/09/27 04:22:44;;;;;;;0.30;0.30;;;;;;;;;;4963811;28;20043;-87
2023/09/27 04:25:14;;;;;;;0.20;0.20;;;;;;;;;;4978868;28;20047;-87
2023/09/27 04:27:42;;;;;;;0.30;0.30;;;;;;;;;;4978231;28;20046;-84
2023/09/27 04:30:11;;;;;;;0.30;0.30;;;;;;;;;;4962259;28;20625;-87
2023/09/27 04:32:38;;;;;;;0.30;0.30;;;;;;;;;;4962853;28;20046;-87
2023/09/27 04:35:04;;;;;;;0.30;0.30;;;;;;;;;;4963329;28;20050;-88
2023/09/27 04:37:30;;;;;;;0.20;0.20;;;;;;;;;;4962120;28;20450;-87
2023/09/27 04:39:56;;;;;;;0.20;0.20;;;;;;;;;;4962274;28;20039;-87
2023/09/27 04:42:22;;;;;;;0.20;0.20;;;;;;;;;;4962303;28;20041;-87
2023/09/27 04:44:48;;;;;;;0.20;0.20;;;;;;;;;;4978248;28;20035;-86
2023/09/27 04:47:14;;;;;;;0.30;0.30;;;;;;;;;;4962218;28;20042;-83
2023/09/27 04:49:41;;;;;;;0.20;0.20;;;;;;;;;;4961689;28;20051;-87
2023/09/27 04:52:08;;;;;;;0.30;0.30;;;;;;;;;;4962492;28;20478;-88
2023/09/27 04:54:34;;;;;;;0.20;0.20;;;;;;;;;;4978519;28;20488;-88
2023/09/27 04:57:00;;;;;;;0.30;0.30;;;;;;;;;;4961605;28;20057;-87
2023/09/27 04:59:26;;;;;;;0.25;0.25;;;;;;;;;;4961766;28;20043;-87
2023/09/27 05:01:52;;;;;;;0.30;0.30;;;;;;;;;;4962087;28;20133;-86
2023/09/27 05:04:18;;;;;;;0.30;0.30;;;;;;;;;;4978196;28;20384;-87
2023/09/27 05:06:44;;;;;;;0.30;0.30;;;;;;;;;;4979517;28;20042;-86
2023/09/27 05:09:11;;;;;;;0.30;0.30;;;;;;;;;;4961062;28;20129;-87
2023/09/27 05:11:38;;;;;;;0.30;0.30;;;;;;;;;;4962062;28;20054;-85
2023/09/27 05:14:06;;;;;;;0.20;0.20;;;;;;;;;;4962450;28;20042;-86
2023/09/27 05:16:36;;;;;;;0.40;0.40;;;;;;;;;;4961210;28;20049;-85
2023/09/27 05:19:05;;;;;;;0.20;0.20;;;;;;;;;;4962050;28;20050;-87
2023/09/27 05:21:31;;;;;;;0.20;0.20;;;;;;;;;;4961845;28;20039;-87
2023/09/27 05:23:57;;;;;;;0.20;0.20;;;;;;;;;;4961581;28;20046;-87
2023/09/27 05:26:23;;;;;;;0.30;0.30;;;;;;;;;;4961560;28;20047;-88
2023/09/27 05:28:49;;;;;;;0.30;0.30;;;;;;;;;;4960609;28;20093;-88
2023/09/27 05:31:15;;;;;;;0.30;0.30;;;;;;;;;;4961864;28;20113;-87
2023/09/27 05:33:41;;;;;;;0.20;0.20;;;;;;;;;;4961200;28;20054;-88
2023/09/27 05:36:07;;;;;;;0.30;0.30;;;;;;;;;;4962027;28;20039;-88
2023/09/27 05:38:33;;;;;;;0.20;0.20;;;;;;;;;;4977587;28;20126;-86
2023/09/27 05:40:59;;;;;;;0.30;0.30;;;;;;;;;;4961446;28;20066;-87
2023/09/27 05:43:25;;;;;;;0.25;0.25;;;;;;;;;;4961301;28;20043;-87
2023/09/27 05:45:52;;;;;;;0.30;0.30;;;;;;;;;;4962119;28;20065;-85
2023/09/27 05:48:18;;;;;;;0.30;0.30;;;;;;;;;;4960402;28;20054;-87
2023/09/27 05:50:48;;;;;;;0.20;0.20;;;;;;;;;;4961630;28;20042;-87
2023/09/27 05:53:16;;;;;;;0.22;0.22;;;;;;;;;;4977771;28;20126;-87
2023/09/27 05:55:43;;;;;;;0.20;0.20;;;;;;;;;;4977213;28;20043;-87
2023/09/27 05:58:09;;;;;;;0.20;0.20;;;;;;;;;;4961055;28;20043;-86
2023/09/27 06:00:42;;;;;;;0.30;0.30;;;;;;;;;;4961514;28;20042;-86
2023/09/27 06:03:25;;;;;;;0.20;0.20;;;;;;;;;;4961009;28;20080;-87
2023/09/27 06:05:52;;;;;;;0.20;0.20;;;;;;;;;;4961928;28;20415;-86
2023/09/27 06:08:18;;;;;;;0.10;0.10;;;;;;;;;;4960553;28;20042;-87
2023/09/27 06:10:44;;;;;;;0.20;0.20;;;;;;;;;;4961225;28;20065;-87
2023/09/27 06:13:11;;;;;;;0.20;0.20;;;;;;;;;;4975985;28;20039;-86
2023/09/27 06:15:37;;;;;;;0.30;0.30;;;;;;;;;;4976982;28;20057;-87
2023/09/27 06:18:03;;;;;;;0.25;0.25;;;;;;;;;;4960543;28;20039;-87
2023/09/27 06:20:30;;;;;;;0.20;0.20;;;;;;;;;;4976770;28;20115;-88
2023/09/27 06:22:57;;;;;;;0.20;0.20;;;;;;;;;;4944781;28;20125;-88
2023/09/27 06:25:29;;;;;;;0.30;0.30;;;;;;;;;;4960674;28;20039;-86
2023/09/27 06:27:55;;;;;;;0.20;0.20;;;;;;;;;;4959097;28;20048;-87
2023/09/27 06:30:22;;;;;;;0.30;0.30;;;;;;;;;;4959725;28;20065;-87
2023/09/27 06:32:48;;;;;;;0.22;0.22;;;;;;;;;;4959833;28;20042;-86
2023/09/27 06:35:33;;;;;;;0.20;0.20;;;;;;;;;;4976546;28;20050;-86
2023/09/27 06:38:00;;;;;;;0.30;0.30;;;;;;;;;;4960356;28;20042;-86
2023/09/27 06:40:29;;;;;;;0.30;0.30;;;;;;;;;;4959432;28;20038;-89
2023/09/27 06:42:55;;;;;;;0.30;0.30;;;;;;;;;;4960213;28;20039;-88
2023/09/27 06:45:22;;;;;;;0.20;0.20;;;;;;;;;;4960138;28;20046;-87
2023/09/27 06:47:48;;;;;;;0.20;0.20;;;;;;;;;;4960027;28;20042;-88
2023/09/27 06:50:15;;;;;;;0.45;0.45;;;;;;;;;;4960181;28;20045;-86
2023/09/27 06:52:45;;;;;;;0.30;0.30;;;;;;;;;;4960311;28;20106;-88
2023/09/27 06:55:11;;;;;;;0.40;0.40;;;;;;;;;;4959831;28;20069;-88
2023/09/27 06:57:38;;;;;;;0.20;0.20;;;;;;;;;;4960018;28;20050;-87
2023/09/27 07:00:18;;;;;;;0.20;0.20;;;;;;;;;;4960301;28;20049;-86
2023/09/27 07:02:46;;;;;;;0.20;0.20;;;;;;;;;;4960191;28;20135;-87
2023/09/27 07:05:13;;;;;;;0.20;0.20;;;;;;;;;;4960830;28;20064;-87
2023/09/27 07:07:40;;;;;;;0.20;0.20;;;;;;;;;;4975533;28;20047;-88
2023/09/27 07:10:06;;;;;;;0.30;0.30;;;;;;;;;;4960377;28;20054;-87
2023/09/27 07:12:34;;;;;;;0.20;0.20;;;;;;;;;;4960252;28;20101;-88
2023/09/27 07:15:00;;;;;;;0.30;0.30;;;;;;;;;;4960482;28;20073;-88
2023/09/27 07:17:26;;;;;;;0.30;0.30;;;;;;;;;;4960557;28;20051;-88
2023/09/27 07:23:15;;;;;;;0.10;0.10;;;;;;;;;;4983334;28;20033;-88
2023/09/27 07:25:45;;;;;;;0.20;0.20;;;;;;;;;;4977599;28;20479;-90
2023/09/27 07:28:11;;;;;;;0.20;0.20;;;;;;;;;;4959669;28;20439;-89
2023/09/27 07:30:37;;;;;;;0.20;0.20;;;;;;;;;;4959906;28;20058;-89
2023/09/27 07:33:08;;;;;;;0.17;0.17;;;;;;;;;;4955719;28;20047;-88
2023/09/27 07:35:35;;;;;;;0.17;0.17;;;;;;;;;;4961062;28;20147;-88
2023/09/27 07:38:01;;;;;;;0.22;0.22;;;;;;;;;;4954222;29;20038;-88
2023/09/27 07:40:28;;;;;;;0.20;0.20;;;;;;;;;;4960123;29;20554;-87
2023/09/27 07:42:54;;;;;;;0.20;0.20;;;;;;;;;;4943681;29;20039;-88
2023/09/27 07:45:25;;;;;;;0.28;0.28;;;;;;;;;;4945368;29;20042;-87
2023/09/27 07:47:52;;;;;;;0.10;0.10;;;;;;;;;;4959215;28;20047;-89
2023/09/27 07:50:22;;;;;;;0.20;0.20;;;;;;;;;;4971201;28;20039;-88
2023/09/27 07:52:48;;;;;;;0.20;0.20;;;;;;;;;;4959175;28;20082;-87
2023/09/27 07:55:14;;;;;;;0.20;0.20;;;;;;;;;;4964086;28;20085;-89
2023/09/27 07:57:45;;;;;;;0.20;0.20;;;;;;;;;;4963274;28;20054;-89
2023/09/27 08:00:15;;;;;;;0.20;0.20;;;;;;;;;;4963182;28;20435;-89
2023/09/27 08:02:43;;;;;;;0.20;0.20;;;;;;;;;;4964206;28;20074;-88
2023/09/27 08:05:11;;;;;;;0.17;0.17;;;;;;;;;;4963685;28;20034;-89
2023/09/27 08:07:38;;;;;;;0.20;0.20;;;;;;;;;;4963353;28;20129;-88
2023/09/27 08:10:04;;;;;;;0.30;0.30;;;;;;;;;;4963632;28;20066;-87
2023/09/27 08:12:31;;;;;;;0.10;0.10;;;;;;;;;;4962086;28;20077;-89
2023/09/27 08:15:07;;;;;;;0.20;0.20;;;;;;;;;;4962872;28;20110;-89
2023/09/27 08:17:34;;;;;;;0.20;0.20;;;;;;;;;;4960847;28;20050;-92
2023/09/27 08:20:09;;;;;;;0.35;0.35;;;;;;;;;;4946890;29;20125;-92
2023/09/27 08:22:36;;;;;;;0.10;0.10;;;;;;;;;;4946118;29;20122;-91
2023/09/27 08:25:05;;;;;;;0.17;0.17;;;;;;;;;;4953607;28;20058;-92
2023/09/27 08:27:32;;;;;;;0.13;0.13;;;;;;;;;;4935508;29;20047;-91
2023/09/27 08:30:00;;;;;;;0.10;0.10;;;;;;;;;;4945666;29;20043;-91
2023/09/27 08:32:26;;;;;;;0.20;0.20;;;;;;;;;;4958683;28;20050;-91
2023/09/27 08:34:52;;;;;;;0.10;0.10;;;;;;;;;;4948478;29;20039;-93
2023/09/27 08:37:18;;;;;;;0.10;0.10;;;;;;;;;;4933315;28;20133;-90
2023/09/27 08:39:44;;;;;;;0.13;0.13;;;;;;;;;;4945593;29;20050;-91
2023/09/27 08:42:10;;;;;;;0.30;0.30;;;;;;;;;;4945758;29;20046;-91
2023/09/27 08:44:36;;;;;;;0.20;0.20;;;;;;;;;;4945796;28;20125;-92
2023/09/27 08:47:03;;;;;;;0.20;0.20;;;;;;;;;;4955792;28;21334;-92
2023/09/27 08:49:29;;;;;;;0.20;0.20;;;;;;;;;;4958491;28;20467;-92
2023/09/27 08:52:02;;;;;;;0.10;0.10;;;;;;;;;;4945916;29;20082;-92
2023/09/27 08:54:28;;;;;;;0.17;0.17;;;;;;;;;;4960744;28;20043;-91
2023/09/27 08:56:55;;;;;;;1.85;1.75;;;;;;;;;;4952307;28;20049;-92
2023/09/27 08:59:21;;;;;;;0.20;0.20;;;;;;;;;;4946157;29;20062;-92
2023/09/27 09:01:48;;;;;;;0.10;0.10;;;;;;;;;;4959952;28;20043;-91
2023/09/27 09:04:14;;;;;;;2.45;2.15;;;;;;;;;;4961109;28;20046;-92
2023/09/27 09:06:41;;;;;;;0.22;0.22;;;;;;;;;;4966721;28;20031;-92
2023/09/27 09:09:34;;;;;;;0.10;0.10;;;;;;;;;;4973953;28;20043;-92
2023/09/27 09:12:08;;;;;;;0.20;0.20;;;;;;;;;;4960773;28;20527;-92
2023/09/27 09:14:39;;;;;;;0.20;0.20;;;;;;;;;;4964760;28;20173;-92
2023/09/27 09:17:08;;;;;;;0.17;0.17;;;;;;;;;;4980430;28;20046;-91
2023/09/27 09:19:37;;;;;;;0.20;0.20;;;;;;;;;;4963766;28;20066;-92
2023/09/27 09:22:11;;;;;;;1.17;1.08;;;;;;;;;;4966242;28;20046;-92
2023/09/27 09:24:41;;;;;;;0.20;0.20;;;;;;;;;;4964157;28;20483;-92
2023/09/27 09:27:26;;;;;;;0.20;0.20;;;;;;;;;;4945854;28;20127;-91
2023/09/27 09:29:53;;;;;;;0.20;0.20;;;;;;;;;;4960229;28;20057;-92
2023/09/27 09:32:26;;;;;;;0.40;0.40;;;;;;;;;;4963854;28;20042;-92
2023/09/27 09:34:56;;;;;;;0.10;0.10;;;;;;;;;;4949701;29;20035;-92
2023/09/27 09:37:23;;;;;;;0.10;0.10;;;;;;;;;;4953487;28;20038;-92
2023/09/27 09:39:50;;;;;;;0.00;0.00;;;;;;;;;;4964125;28;20535;-92
2023/09/27 09:42:50;;;;;;;0.20;0.20;;;;;;;;;;4961324;28;20073;-92
2023/09/27 09:45:17;;;;;;;0.20;0.20;;;;;;;;;;4945319;29;20043;-93
2023/09/27 09:47:44;;;;;;;0.13;0.13;;;;;;;;;;4944553;29;20099;-92
2023/09/27 09:50:19;;;;;;;0.20;0.20;;;;;;;;;;4945774;29;20046;-92
2023/09/27 09:52:48;;;;;;;0.10;0.10;;;;;;;;;;4952442;28;20407;-92
2023/09/27 09:55:25;;;;;;;0.00;0.00;;;;;;;;;;4957526;28;20098;-92
2023/09/27 09:58:29;;;;;;;0.00;0.00;;;;;;;;;;4978634;28;20047;-91
2023/09/27 10:00:57;;;;;;;0.10;0.10;;;;;;;;;;4906511;29;20039;-91
2023/09/27 10:03:25;;;;;;;0.10;0.10;;;;;;;;;;4951947;28;20090;-92
2023/09/27 10:05:53;;;;;;;0.10;0.10;;;;;;;;;;4980468;28;20046;-92
2023/09/27 10:08:20;;;;;;;0.20;0.20;;;;;;;;;;4953415;28;20046;-91
2023/09/27 10:10:47;;;;;;;0.13;0.13;;;;;;;;;;4959283;28;20124;-92
2023/09/27 10:13:14;;;;;;;0.20;0.20;;;;;;;;;;4980014;28;20049;-92
2023/09/27 10:15:51;;;;;;;0.10;0.10;;;;;;;;;;4955952;28;20099;-92
2023/09/27 10:18:23;;;;;;;0.20;0.20;;;;;;;;;;4972964;28;20313;-91
2023/09/27 10:21:02;;;;;;;0.00;0.00;;;;;;;;;;4964166;28;20054;-92
2023/09/27 10:23:46;;;;;;;0.10;0.10;;;;;;;;;;4964181;28;20499;-92
2023/09/27 10:26:33;;;;;;;0.00;0.00;;;;;;;;;;4973517;28;20065;-91
2023/09/27 10:29:15;;;;;;;0.10;0.10;;;;;;;;;;4955859;28;20046;-91
2023/09/27 10:31:56;;;;;;;0.10;0.10;;;;;;;;;;4963549;28;20114;-90
2023/09/27 10:34:41;;;;;;;0.10;0.10;;;;;;;;;;4960332;28;20039;-92
2023/09/27 10:37:07;;;;;;;0.10;0.10;;;;;;;;;;4963734;28;20047;-90
2023/09/27 10:39:33;;;;;;;0.00;0.00;;;;;;;;;;4959380;28;20035;-92
2023/09/27 10:41:59;;;;;;;0.10;0.10;;;;;;;;;;4977688;28;20047;-92
2023/09/27 10:44:43;;;;;;;0.10;0.10;;;;;;;;;;4980159;28;20050;-91
2023/09/27 10:47:11;;;;;;;0.10;0.10;;;;;;;;;;4963269;28;20484;-92
2023/09/27 10:49:38;;;;;;;0.10;0.10;;;;;;;;;;4962868;28;20047;-91
2023/09/27 10:52:26;;;;;;;0.20;0.20;;;;;;;;;;4962996;28;20042;-91
2023/09/27 10:54:52;;;;;;;0.00;0.00;;;;;;;;;;4963938;28;20043;-92
2023/09/27 10:57:42;;;;;;;0.20;0.20;;;;;;;;;;4979362;28;20049;-90
2023/09/27 11:00:10;;;;;;;0.10;0.10;;;;;;;;;;4963202;28;20051;-92
2023/09/27 11:02:36;;;;;;;0.10;0.10;;;;;;;;;;4952120;29;20049;-94
2023/09/27 11:05:02;;;;;;;0.10;0.10;;;;;;;;;;4957845;28;20023;-93
2023/09/27 11:08:00;;;;;;;0.10;0.10;;;;;;;;;;4979544;28;20912;-95
2023/09/27 11:10:33;;;;;;;0.10;0.10;;;;;;;;;;4954171;29;20086;-92
2023/09/27 11:13:10;;;;;;;0.08;0.08;;;;;;;;;;4955681;28;20046;-93
2023/09/27 11:15:37;;;;;;;0.15;0.15;;;;;;;;;;4959111;28;20074;-91
2023/09/27 11:18:04;;;;;;;0.20;0.20;;;;;;;;;;4943325;29;20102;-91
2023/09/27 11:20:30;;;;;;;0.20;0.20;;;;;;;;;;4945038;28;20039;-94
2023/09/27 11:22:58;;;;;;;0.10;0.10;;;;;;;;;;4944070;29;20110;-92
2023/09/27 11:25:31;;;;;;;0.22;0.22;;;;;;;;;;4943019;29;20054;-93
2023/09/27 11:27:57;;;;;;;0.10;0.10;;;;;;;;;;4942106;29;20050;-91
2023/09/27 11:30:33;;;;;;;0.00;0.00;;;;;;;;;;4959915;29;20159;-93
2023/09/27 11:33:01;;;;;;;0.10;0.10;;;;;;;;;;4943706;28;20044;-93
2023/09/27 11:35:47;;;;;;;0.10;0.10;;;;;;;;;;4960054;28;20047;-94
2023/09/27 11:38:13;;;;;;;0.10;0.10;;;;;;;;;;4962491;28;20051;-92
2023/09/27 11:40:43;;;;;;;0.00;0.00;;;;;;;;;;4979232;28;20046;-92
2023/09/27 11:43:12;;;;;;;0.10;0.10;;;;;;;;;;4962686;28;20043;-92
2023/09/27 11:45:48;;;;;;;0.10;0.10;;;;;;;;;;4956925;28;20054;-93
2023/09/27 11:48:14;;;;;;;0.08;0.08;;;;;;;;;;4955008;28;20102;-93
2023/09/27 11:50:40;;;;;;;0.10;0.10;;;;;;;;;;4962634;28;20702;-91
2023/09/27 11:53:06;;;;;;;0.30;0.30;;;;;;;;;;4962594;28;20053;-92
2023/09/27 11:55:32;;;;;;;0.10;0.10;;;;;;;;;;4978216;28;20079;-92
2023/09/27 11:57:58;;;;;;;0.17;0.17;;;;;;;;;;4954428;28;20074;-91
2023/09/27 12:00:24;;;;;;;0.20;0.20;;;;;;;;;;4961531;28;20039;-91
2023/09/27 12:02:51;;;;;;;0.08;0.08;;;;;;;;;;4962121;28;20085;-92
2023/09/27 12:05:17;;;;;;;0.10;0.10;;;;;;;;;;4963142;28;20078;-90
2023/09/27 12:07:44;;;;;;;0.10;0.10;;;;;;;;;;4962776;28;20038;-94
2023/09/27 12:10:10;;;;;;;0.13;0.13;;;;;;;;;;4962313;28;20038;-92
2023/09/27 12:12:36;;;;;;;0.13;0.13;;;;;;;;;;4961757;28;20053;-93
2023/09/27 12:15:03;;;;;;;0.08;0.08;;;;;;;;;;4961695;28;20034;-92
2023/09/27 12:17:32;;;;;;;0.20;0.20;;;;;;;;;;4963000;28;20039;-92
2023/09/27 12:19:58;;;;;;;0.10;0.10;;;;;;;;;;4961121;28;20038;-92
2023/09/27 12:22:25;;;;;;;0.10;0.10;;;;;;;;;;4978024;28;20046;-92
2023/09/27 12:24:52;;;;;;;0.10;0.10;;;;;;;;;;4962883;28;20050;-93
2023/09/27 12:27:18;;;;;;;0.10;0.10;;;;;;;;;;4965461;28;20047;-89
2023/09/27 12:29:44;;;;;;;0.10;0.10;;;;;;;;;;4961068;28;20105;-91
2023/09/27 12:32:10;;;;;;;0.05;0.05;;;;;;;;;;4965169;28;20137;-90
2023/09/27 12:34:36;;;;;;;0.10;0.10;;;;;;;;;;4964390;28;20049;-92
2023/09/27 12:37:02;;;;;;;0.15;0.15;;;;;;;;;;4961067;29;20408;-92
2023/09/27 12:39:28;;;;;;;0.05;0.05;;;;;;;;;;4944310;29;20050;-91
2023/09/27 12:41:57;;;;;;;0.10;0.10;;;;;;;;;;4957063;28;20034;-91
2023/09/27 12:44:23;;;;;;;0.10;0.10;;;;;;;;;;4981053;28;20050;-90
2023/09/27 12:46:49;;;;;;;0.20;0.20;;;;;;;;;;4965801;28;20507;-90
2023/09/27 12:49:15;;;;;;;0.10;0.10;;;;;;;;;;4964445;28;20038;-91
2023/09/27 12:51:41;;;;;;;0.10;0.10;;;;;;;;;;4965523;28;20117;-91
2023/09/27 12:54:08;;;;;;;0.08;0.08;;;;;;;;;;4964090;28;20057;-91
2023/09/27 12:56:34;;;;;;;0.00;0.00;;;;;;;;;;4964946;28;20046;-91
2023/09/27 12:59:00;;;;;;;0.03;0.03;;;;;;;;;;4949880;29;20455;-92
2023/09/27 13:01:26;;;;;;;0.00;0.00;;;;;;;;;;4944999;29;20122;-92
2023/09/27 13:03:52;;;;;;;0.00;0.00;;;;;;;;;;4945314;29;20039;-92
2023/09/27 13:06:18;;;;;;;0.20;0.20;;;;;;;;;;4947154;29;20054;-90
2023/09/27 13:09:07;;;;;;;0.10;0.10;;;;;;;;;;4947327;28;20035;-90
2023/09/27 13:11:33;;;;;;;0.10;0.10;;;;;;;;;;4945699;29;20488;-93
2023/09/27 13:13:59;;;;;;;0.20;0.20;;;;;;;;;;4946082;28;20043;-90
2023/09/27 13:16:26;;;;;;;0.08;0.08;;;;;;;;;;4945386;28;20094;-90
2023/09/27 13:19:00;;;;;;;0.00;0.00;;;;;;;;;;4946900;29;20043;-93
2023/09/27 13:21:27;;;;;;;0.10;0.10;;;;;;;;;;4945533;29;20024;-93
2023/09/27 13:23:53;;;;;;;0.10;0.10;;;;;;;;;;4944896;29;20036;-91
2023/09/27 13:26:19;;;;;;;0.10;0.10;;;;;;;;;;4944548;29;20050;-91
2023/09/27 13:28:46;;;;;;;0.30;0.30;;;;;;;;;;4951535;28;20042;-92
2023/09/27 13:31:12;;;;;;;0.10;0.10;;;;;;;;;;4956780;28;20035;-92
2023/09/27 13:33:38;;;;;;;0.10;0.10;;;;;;;;;;4963481;28;20414;-92
2023/09/27 13:36:04;;;;;;;0.10;0.10;;;;;;;;;;4963564;28;20043;-91
2023/09/27 13:38:33;;;;;;;0.30;0.30;;;;;;;;;;4953733;29;20043;-92
2023/09/27 13:41:00;;;;;;;0.10;0.10;;;;;;;;;;4961020;29;20090;-91
2023/09/27 13:43:26;;;;;;;0.10;0.10;;;;;;;;;;4944691;28;20039;-92
2023/09/27 13:45:53;;;;;;;0.10;0.10;;;;;;;;;;4960879;29;20051;-91
2023/09/27 13:48:19;;;;;;;0.00;0.00;;;;;;;;;;4950988;28;20042;-92
2023/09/27 13:50:45;;;;;;;0.05;0.05;;;;;;;;;;4964511;28;20280;-92
2023/09/27 13:53:12;;;;;;;0.20;0.20;;;;;;;;;;4963926;28;20034;-92
2023/09/27 13:55:38;;;;;;;0.17;0.17;;;;;;;;;;4964231;28;20403;-92
2023/09/27 13:58:04;;;;;;;0.10;0.10;;;;;;;;;;4962585;28;20105;-91
2023/09/27 14:00:30;;;;;;;0.10;0.10;;;;;;;;;;4963748;28;20027;-92
2023/09/27 14:02:56;;;;;;;0.10;0.10;;;;;;;;;;4963863;28;20043;-91
2023/09/27 14:05:23;;;;;;;0.05;0.05;;;;;;;;;;4963356;28;20055;-91
2023/09/27 14:07:50;;;;;;;0.03;0.03;;;;;;;;;;4961690;28;20043;-91
2023/09/27 14:10:16;;;;;;;0.10;0.10;;;;;;;;;;4963545;28;20061;-92
2023/09/27 14:12:42;;;;;;;0.00;0.00;;;;;;;;;;4958977;28;20043;-91
2023/09/27 14:15:08;;;;;;;0.10;0.10;;;;;;;;;;4944708;28;20058;-92
2023/09/27 14:17:35;;;;;;;0.10;0.10;;;;;;;;;;4928308;29;20400;-91
2023/09/27 14:20:01;;;;;;;0.00;0.00;;;;;;;;;;4944040;28;20082;-92
2023/09/27 14:22:27;;;;;;;0.10;0.10;;;;;;;;;;4944102;28;20504;-91
2023/09/27 14:24:53;;;;;;;0.10;0.10;;;;;;;;;;4943850;29;20082;-92
2023/09/27 14:27:19;;;;;;;0.15;0.15;;;;;;;;;;4943134;28;20523;-91
2023/09/27 14:29:45;;;;;;;0.00;0.00;;;;;;;;;;4954564;28;20186;-92
2023/09/27 14:32:11;;;;;;;0.10;0.10;;;;;;;;;;4962753;28;20183;-90
2023/09/27 14:34:37;;;;;;;0.10;0.10;;;;;;;;;;4946900;29;20039;-92
2023/09/27 14:37:03;;;;;;;0.10;0.10;;;;;;;;;;4944962;28;20047;-92
2023/09/27 14:39:29;;;;;;;0.10;0.10;;;;;;;;;;4943111;29;20046;-92
2023/09/27 14:41:57;;;;;;;0.10;0.10;;;;;;;;;;4943511;29;20082;-93
2023/09/27 14:44:23;;;;;;;0.10;0.10;;;;;;;;;;4943634;29;20049;-93
2023/09/27 14:46:49;;;;;;;0.10;0.10;;;;;;;;;;4943162;29;20047;-93
2023/09/27 14:49:15;;;;;;;0.00;0.00;;;;;;;;;;4958784;28;20045;-92
2023/09/27 14:51:45;;;;;;;0.10;0.10;;;;;;;;;;4963446;28;20089;-91